WAOO/BDJ METAR and TAF weather

Enter ICAO airport designator
Station Type Date Time Source
WAOO METAR 2019/08/22 20:00 UTC NOAA

WAOO 222000Z AUTO 32001KT 7000 BKN048 23/21 Q1010


Station Type Date Time Source
WAOO Decoded METAR 2019/08/22 20:00 UTC NOAA

Station name not available
Aug 22, 2019 - 04:00 PM EDT / 2019.08.22 2000 UTC
Wind: from the NW (320 degrees) at 1 MPH (1 KT):0
Visibility: 4 mile(s):0
Sky conditions: mostly cloudy
Temperature: 73 F (23 C)
Dew Point: 69 F (21 C)
Relative Humidity: 88%
Pressure (altimeter): 29.83 in. Hg (1010 hPa)
ob: WAOO 222000Z AUTO 32001KT 7000 BKN048 23/21 Q1010
cycle: 20

Station Type Date Time Source
WAOO TAF 2019/08/22 18:10 UTC NOAA

TAF WAOO 221700Z 2218/2318 18005KT 9999 FEW020=

Example: see airport list